METAR Reports

 

EHEH - Eindhoven Airport, Eindhoven, NL
Distance from station: W 30km
Updated: 16/12/2018 07:55
Mist, Zwaar bewolkt
Mist, Zwaar bewolkt
 Wind van Z
Wind: Z 13 km/h
Temperatuur: 0°C
Wind Chill: -4°C
Dauwpunt: 0°C
Vochtigheid: 100%
Barometer: 1009 hPa
Overzicht: Mist
Clouds: Zwaar bewolkt
Visibility: 2 km
Cloud details: Few Clouds 91 m
Meestal bewolkt 152 m
Zwaar bewolkt 183 m
2018/12/16 06:55 EHEH 160655Z AUTO 18007KT 140V220 2200 R21/2100D BR FEW003/// BKN005/// OVC006/// 00/00 Q1009 YLO 16007KT 2000 BR FEW003 BKN005 OVC006 BECMG FEW002 SCT003 BKN005
EHVK - Volkel Airoprt, Volkel, NL
Distance from station: NO 30km
Updated: 16/12/2018 07:55
Mist, Zwaar bewolkt
Mist, Zwaar bewolkt
 Wind van Z
Wind: Z 9 km/h
Temperatuur: 0°C
Wind Chill: -3°C
Dauwpunt: 0°C
Vochtigheid: 100%
Barometer: 1009 hPa
Overzicht: Mist
Clouds: Zwaar bewolkt
Visibility: 3 km
Cloud details: Gedeeltelijk bewolkt 91 m
Zwaar bewolkt 152 m
2018/12/16 06:55 EHVK 160655Z AUTO 17005KT 2800 R06L/2700N BR SCT003 OVC005 00/M00 Q1009 YLO
 
EHGR - Gilze-Rijen Airport, Gilze-Rijen, NL
Distance from station: W 43km
Updated: 16/12/2018 07:55
Mist, Zwaar bewolkt
Mist, Zwaar bewolkt
 Wind van Z
Wind: Z 13 km/h
Temperatuur: 1°C
Wind Chill: -3°C
Dauwpunt: 0°C
Vochtigheid: 93%
Barometer: 1009 hPa
Overzicht: Mist
Clouds: Zwaar bewolkt
Visibility: 3 km
Cloud details: Zwaar bewolkt 91 m
2018/12/16 06:55 EHGR 160655Z AUTO 18007KT 140V200 2600 BR OVC003 01/00 Q1009 YLO
EHBK - Maastricht-Aken Airport, Beek, NL
Distance from station: ZZO 70km
Updated: 16/12/2018 07:55
Zwaar bewolkt
Zwaar bewolkt
 Wind van ZZW
Wind: ZZW 24 km/h
Temperatuur: 1°C
Wind Chill: -4°C
Dauwpunt: -1°C
Vochtigheid: 87%
Barometer: 1009 hPa
Clouds: Zwaar bewolkt
Visibility: 9 km
Cloud details: Zwaar bewolkt 305 m
2018/12/16 06:55 EHBK 160655Z AUTO 21013KT 160V230 9000 OVC010 01/M01 Q1009 R03/610594 BECMG BKN008 TEMPO 4500 -DZ
 
EHAM - Schiphol, Amsterdam, NL
Distance from station: NNW 115km
Updated: 16/12/2018 07:55
Mist, Zwaar bewolkt
Mist, Zwaar bewolkt
 Wind van ZZO
Wind: ZZO 17 km/h
Temperatuur: 0°C
Wind Chill: -4°C
Dauwpunt: 0°C
Vochtigheid: 100%
Barometer: 1008 hPa
Overzicht: Mist
Clouds: Zwaar bewolkt
Visibility: 2 km
Cloud details: Few Clouds 61 m
Zwaar bewolkt 91 m
2018/12/16 06:55 EHAM 160655Z 16009KT 2200 BR FEW002 OVC003 00/00 Q1008 BECMG BKN002